1891 Hurricane NOT_NAMED (1891229N13336)


IBTrACS version v04r00. Visit IBTrACS website for data access.
Please direct all questions to the IBTrACS Q and A forum

Storm track - Intensity - Wind Radii - Intensity Data - Source Data - All data

Summary Information

Storm ID 1891229N13336
Start Aug 17 06Z
Max Intensity 90 kt (Aug 29 12Z), 965 mb (Aug 29 18Z)
End Aug 30 12Z
ATCF IDs ,AL021891
Track status Best track data.

Storm track plot

Map of storm track

Intensity plots

Map of storm track

Radial wind information

No radial wind information for this storm


Position and Intensity Table

BASIN ISO_TIME_________ NATURE LAT LON WMO WIND USA WIND MLC WIND MLC PRES
degrees north degrees east kts kts kts mb
NA 1891-08-17 06:00:00 TS 12.67 -24.40 35 35 30
NA 09:00:00 TS 12.81 -24.87 35 30
NA 12:00:00 TS 12.93 -25.33 35 35 30
NA 15:00:00 TS 13.04 -25.80 35 30
NA 18:00:00 TS 13.13 -26.27 35 35 30
NA 21:00:00 TS 13.23 -26.73 35 30
NA 1891-08-18 00:00:00 TS 13.33 -27.20 35 35 30
NA 03:00:00 TS 13.43 -27.67 37 32
NA 06:00:00 TS 13.53 -28.13 40 40 35
NA 09:00:00 TS 13.63 -28.60 45 37
NA 12:00:00 TS 13.85 -29.22 50 50 40
NA 15:00:00 TS 14.09 -29.91 55 45
NA 18:00:00 TS 14.38 -30.67 60 60 50
NA 21:00:00 TS 14.74 -31.51 62
NA 1891-08-19 00:00:00 TS 14.90 -32.00 65 65
NA 03:00:00 TS 15.06 -32.50 65
NA 06:00:00 TS 15.20 -33.00 65 65
NA 09:00:00 TS 15.31 -33.51 65
NA 12:00:00 TS 15.40 -34.00 65 65
NA 15:00:00 TS 15.50 -34.46 65
NA 18:00:00 TS 15.60 -34.90 65 65
NA 21:00:00 TS 15.69 -35.35 65
NA 1891-08-20 00:00:00 TS 15.80 -35.80 65 65
NA 03:00:00 TS 15.95 -36.26 65
NA 06:00:00 TS 16.10 -36.70 65 65
NA 09:00:00 TS 16.21 -37.11 65
NA 12:00:00 TS 16.30 -37.50 65 65
NA 15:00:00 TS 16.40 -37.91 65
NA 18:00:00 TS 16.50 -38.30 65 65
NA 21:00:00 TS 16.59 -38.65 65
NA 1891-08-21 00:00:00 TS 16.70 -39.00 65 65
NA 03:00:00 TS 16.57 -39.07 65
NA 06:00:00 TS 16.50 -39.24 65 65 65
NA 09:00:00 TS 16.45 -39.47 65 62
NA 12:00:00 TS 16.43 -39.77 65 65 60
NA 15:00:00 TS 16.57 -40.24 65 57
NA 18:00:00 TS 16.73 -40.73 65 65 55
NA 21:00:00 TS 16.92 -41.28 65 52
NA 1891-08-22 00:00:00 TS 17.13 -41.83 65 65 50
NA 03:00:00 TS 17.38 -42.36 65 50
NA 06:00:00 TS 17.63 -42.87 65 65 50
NA 09:00:00 TS 17.89 -43.39 65 50
NA 12:00:00 TS 18.13 -43.90 65 65 50
NA 15:00:00 TS 18.35 -44.39 65 50
NA 18:00:00 TS 18.57 -44.87 65 65 50
NA 21:00:00 TS 18.78 -45.32 65 47
NA 1891-08-23 00:00:00 TS 19.00 -45.77 65 65 45
NA 03:00:00 TS 19.25 -46.21 65 45
NA 06:00:00 TS 19.50 -46.67 65 65 45
NA 09:00:00 TS 19.73 -47.15 65 45
NA 12:00:00 TS 19.97 -47.63 65 65 45
NA 15:00:00 TS 20.23 -48.12 65 45
NA 18:00:00 TS 20.50 -48.60 65 65 45
NA 21:00:00 TS 20.73 -49.08 65 45
NA 1891-08-24 00:00:00 TS 20.97 -49.57 65 65 45
NA 03:00:00 TS 21.25 -50.08 65 45
NA 06:00:00 TS 21.57 -50.60 65 65 45
NA 09:00:00 TS 21.87 -51.11 65 45
NA 12:00:00 TS 22.20 -51.63 65 65 45
NA 15:00:00 TS 22.55 -52.18 65 45
NA 18:00:00 TS 22.93 -52.73 65 65 45
NA 21:00:00 TS 23.33 -53.29 65 45
NA 1891-08-25 00:00:00 TS 23.73 -53.83 65 65 45
NA 03:00:00 TS 24.14 -54.30 65 45
NA 06:00:00 TS 24.53 -54.80 65 65 45
NA 09:00:00 TS 24.91 -55.45 65 45
NA 12:00:00 TS 25.27 -56.10 65 65 45
NA 15:00:00 TS 25.63 -56.64 65 45
NA 18:00:00 TS 26.00 -57.13 65 65 45
NA 21:00:00 TS 26.37 -57.66 65 47
NA 1891-08-26 00:00:00 TS 26.73 -58.17 65 65 50
NA 03:00:00 TS 27.10 -58.66 65 52
NA 06:00:00 TS 27.47 -59.13 65 65 55
NA 09:00:00 TS 27.83 -59.59 65 57
NA 12:00:00 TS 28.20 -60.03 65 65 60
NA 15:00:00 TS 28.56 -60.49 65 62
NA 18:00:00 TS 28.93 -60.93 65 65 65
NA 21:00:00 TS 29.36 -61.34 65 65
NA 1891-08-27 00:00:00 TS 29.80 -61.70 65 65 65
NA 03:00:00 TS 30.23 -62.03 65 67
NA 06:00:00 TS 30.67 -62.33 65 65 70
NA 09:00:00 TS 31.09 -62.64 65 70
NA 12:00:00 TS 31.53 -62.93 65 65 70
NA 15:00:00 TS 32.01 -63.20 65 72
NA 18:00:00 TS 32.53 -63.43 65 65 75
NA 21:00:00 TS 33.10 -63.63 65 75
NA 1891-08-28 00:00:00 TS 33.70 -63.80 65 65 75
NA 03:00:00 TS 34.28 -63.98 65 77
NA 06:00:00 TS 34.87 -64.13 65 65 80
NA 09:00:00 TS 35.49 -64.27 65 80
NA 12:00:00 TS 36.13 -64.37 65 65 80
NA 15:00:00 TS 36.76 -64.46 65 80
NA 18:00:00 TS 37.40 -64.50 65 65 80
NA 21:00:00 TS 38.09 -64.45 65 82
NA 1891-08-29 00:00:00 TS 38.80 -64.33 65 65 85
NA 03:00:00 TS 39.47 -64.26 60 85
NA 06:00:00 MX 40.20 -64.07 55 55 85
NA 09:00:00 MX 41.08 -63.62 45 87
NA 12:00:00 MX 41.98 -62.86 35 35 90
NA 15:00:00 MX 42.79 -61.80 30 90
NA 18:00:00 MX 43.57 -60.13 25 25 90 965
NA 21:00:00 TS 44.33 -57.13 80
NA 1891-08-30 00:00:00 ET 45.00 -56.20 70
NA 03:00:00 ET 45.78 -55.22 70
NA 06:00:00 ET 46.80 -54.30 70
NA 09:00:00 ET 48.15 -53.44 65
NA 12:00:00 ET 49.70 -52.60 60

Source Information

Agency Information
USA hurdat2-1851-2018-051019.txt:Line=6778:UNNAMED
TOKYO
CMA
HKO
NEWDELHI
REUNION
BOM
NADI
WELLINGTON
DS824
TD9636
TD9635
NEUMANN
MLC

All available IBTrACS Data

SEASON BASIN SUBBASIN ISO_TIME_________ NATURE LAT LON WMO WIND WMO AGENCY DIST2LAND LANDFALL IFLAG USA AGENCY USA ATCF_ID USA LAT USA LON USA STATUS USA WIND USA SSHS MLC LAT MLC LON MLC CLASS MLC WIND MLC PRES STORM SPEED STORM DIR
Year degrees north degrees east kts km km degrees north degrees east kts 1 degrees north degrees east kts mb kts degrees
1891 NA NA 1891-08-17 06:00:00 TS 12.67 -24.40 35 hurdat_atl 778 778 O____________O hurdat_atl AL021891 13.30 -24.40 TS 35 0 11.40 -24.40 TD 30 10 287
1891 NA NA 09:00:00 TS 12.81 -24.87 827 827 P____________P AL021891 13.46 -24.95 TS 35 0 11.50 -24.70 TD 30 10 286
1891 NA NA 12:00:00 TS 12.93 -25.33 35 hurdat_atl 866 866 O____________O hurdat_atl AL021891 13.60 -25.50 TS 35 0 11.60 -25.00 TD 30 9 284
1891 NA NA 15:00:00 TS 13.04 -25.80 916 916 P____________P AL021891 13.71 -26.05 TS 35 0 11.70 -25.30 TD 30 9 282
1891 NA NA 18:00:00 TS 13.13 -26.27 35 hurdat_atl 967 967 O____________O hurdat_atl AL021891 13.80 -26.60 TS 35 0 11.80 -25.60 TD 30 9 282
1891 NA NA 21:00:00 TS 13.23 -26.73 1007 1007 P____________P AL021891 13.90 -27.15 TS 35 0 11.90 -25.90 TD 30 9 282
1891 NA NA 1891-08-18 00:00:00 TS 13.33 -27.20 35 hurdat_atl 1058 1058 O____________O hurdat_atl AL021891 14.00 -27.70 TS 35 0 12.00 -26.20 TD 30 9 282
1891 NA NA 03:00:00 TS 13.43 -27.67 1110 1110 P____________P AL021891 14.10 -28.25 TS 37 0 12.10 -26.50 TD 32 9 282
1891 NA NA 06:00:00 TS 13.53 -28.13 40 hurdat_atl 1151 1151 O____________O hurdat_atl AL021891 14.20 -28.80 TS 40 0 12.20 -26.80 TS 35 9 282
1891 NA NA 09:00:00 TS 13.63 -28.60 1203 1203 P____________P AL021891 14.30 -29.35 TS 45 0 12.30 -27.10 TS 37 11 287
1891 NA NA 12:00:00 TS 13.85 -29.22 50 hurdat_atl 1264 1264 O____________O hurdat_atl AL021891 14.40 -29.90 TS 50 0 12.40 -27.40 TS 40 14 290
1891 NA NA 15:00:00 TS 14.09 -29.91 1337 1337 P____________P AL021891 14.49 -30.46 TS 55 0 12.50 -27.70 TS 45 15 290
1891 NA NA 18:00:00 TS 14.38 -30.67 60 hurdat_atl 1421 1421 O____________O hurdat_atl AL021891 14.60 -31.00 TS 60 0 12.60 -28.00 TS 50 17 293
1891 NA NA 21:00:00 TS 14.74 -31.51 1506 1505 P_____________ AL021891 14.74 -31.51 TS 62 0 TS 14 292
1891 NA NA 1891-08-19 00:00:00 TS 14.90 -32.00 65 hurdat_atl 1559 1559 O_____________ hurdat_atl AL021891 14.90 -32.00 HU 65 1 TS 10 288
1891 NA NA 03:00:00 TS 15.06 -32.50 1612 1612 P_____________ AL021891 15.06 -32.50 HU 65 1 TS 10 287
1891 NA NA 06:00:00 TS 15.20 -33.00 65 hurdat_atl 1666 1666 O_____________ hurdat_atl AL021891 15.20 -33.00 HU 65 1 TS 10 284
1891 NA NA 09:00:00 TS 15.31 -33.51 1720 1720 P_____________ AL021891 15.31 -33.51 HU 65 1 TS 10 282
1891 NA NA 12:00:00 TS 15.40 -34.00 65 hurdat_atl 1773 1773 O_____________ hurdat_atl AL021891 15.40 -34.00 HU 65 1 TS 9 282
1891 NA NA 15:00:00 TS 15.50 -34.46 1827 1827 P_____________ AL021891 15.50 -34.46 HU 65 1 TS 9 283
1891 NA NA 18:00:00 TS 15.60 -34.90 65 hurdat_atl 1870 1870 O_____________ hurdat_atl AL021891 15.60 -34.90 HU 65 1 TS 9 283
1891 NA NA 21:00:00 TS 15.69 -35.35 1924 1924 P_____________ AL021891 15.69 -35.35 HU 65 1 TS 9 283
1891 NA NA 1891-08-20 00:00:00 TS 15.80 -35.80 65 hurdat_atl 1967 1967 O_____________ hurdat_atl AL021891 15.80 -35.80 HU 65 1 TS 9 286
1891 NA NA 03:00:00 TS 15.95 -36.26 2020 2020 P_____________ AL021891 15.95 -36.26 HU 65 1 TS 9 289
1891 NA NA 06:00:00 TS 16.10 -36.70 65 hurdat_atl 2064 2045 O_____________ hurdat_atl AL021891 16.10 -36.70 HU 65 1 TS 9 288
1891 NA NA 09:00:00 TS 16.21 -37.11 2045 2019 P_____________ AL021891 16.21 -37.11 HU 65 1 TS 8 285
1891 NA NA 12:00:00 TS 16.30 -37.50 65 hurdat_atl 2019 1994 O_____________ hurdat_atl AL021891 16.30 -37.50 HU 65 1 TS 8 284
1891 NA NA 15:00:00 TS 16.40 -37.91 1994 1970 P_____________ AL021891 16.40 -37.91 HU 65 1 TS 8 285
1891 NA NA 18:00:00 TS 16.50 -38.30 65 hurdat_atl 1970 1954 O_____________ hurdat_atl AL021891 16.50 -38.30 HU 65 1 TS 7 285
1891 NA NA 21:00:00 TS 16.59 -38.65 1946 1931 P_____________ AL021891 16.59 -38.65 HU 65 1 TS 7 287
1891 NA NA 1891-08-21 00:00:00 TS 16.70 -39.00 65 hurdat_atl 1931 1916 O_____________ hurdat_atl AL021891 16.70 -39.00 HU 65 1 TS 4 267
1891 NA NA 03:00:00 TS 16.57 -39.07 1916 1900 P_____________ AL021891 16.84 -39.39 HU 65 1 TS 3 229
1891 NA NA 06:00:00 TS 16.50 -39.24 65 hurdat_atl 1900 1878 O____________O hurdat_atl AL021891 17.00 -39.80 HU 65 1 14.50 -37.00 HU 65 4 253
1891 NA NA 09:00:00 TS 16.45 -39.47 1878 1855 P____________P AL021891 17.14 -40.19 HU 65 1 14.61 -37.55 HU 62 5 262
1891 NA NA 12:00:00 TS 16.43 -39.77 65 hurdat_atl 1847 1826 O____________O hurdat_atl AL021891 17.30 -40.60 HU 65 1 14.70 -38.10 TS 60 7 279
1891 NA NA 15:00:00 TS 16.57 -40.24 1834 1807 P____________P AL021891 17.48 -41.03 HU 65 1 14.75 -38.65 TS 57 10 288
1891 NA NA 18:00:00 TS 16.73 -40.73 65 hurdat_atl 1807 1788 O____________O hurdat_atl AL021891 17.70 -41.50 HU 65 1 14.80 -39.20 TS 55 11 289
1891 NA NA 21:00:00 TS 16.92 -41.28 1783 1768 P____________P AL021891 17.94 -42.04 HU 65 1 14.87 -39.75 TS 52 11 291
1891 NA NA 1891-08-22 00:00:00 TS 17.13 -41.83 65 hurdat_atl 1768 1755 O____________O hurdat_atl AL021891 18.20 -42.60 HU 65 1 15.00 -40.30 TS 50 11 294
1891 NA NA 03:00:00 TS 17.38 -42.36 1758 1748 P____________P AL021891 18.45 -43.11 HU 65 1 15.23 -40.85 TS 50 11 297
1891 NA NA 06:00:00 TS 17.63 -42.87 65 hurdat_atl 1744 1736 O____________O hurdat_atl AL021891 18.70 -43.60 HU 65 1 15.50 -41.40 TS 50 11 297
1891 NA NA 09:00:00 TS 17.89 -43.39 1738 1726 P____________P AL021891 18.96 -44.11 HU 65 1 15.75 -41.95 TS 50 11 297
1891 NA NA 12:00:00 TS 18.13 -43.90 65 hurdat_atl 1726 1716 O____________O hurdat_atl AL021891 19.20 -44.60 HU 65 1 16.00 -42.50 TS 50 11 296
1891 NA NA 15:00:00 TS 18.35 -44.39 1725 1713 P____________P AL021891 19.41 -45.07 HU 65 1 16.25 -43.05 TS 50 10 295
1891 NA NA 18:00:00 TS 18.57 -44.87 65 hurdat_atl 1717 1711 O____________O hurdat_atl AL021891 19.60 -45.50 HU 65 1 16.50 -43.60 TS 50 10 296
1891 NA NA 21:00:00 TS 18.78 -45.32 1716 1706 P____________P AL021891 19.79 -45.91 HU 65 1 16.75 -44.15 TS 47 10 297
1891 NA NA 1891-08-23 00:00:00 TS 19.00 -45.77 65 hurdat_atl 1711 1711 O____________O hurdat_atl AL021891 20.00 -46.30 HU 65 1 17.00 -44.70 TS 45 10 299
1891 NA NA 03:00:00 TS 19.25 -46.21 1713 1713 P____________P AL021891 20.25 -46.69 HU 65 1 17.24 -45.25 TS 45 10 300
1891 NA NA 06:00:00 TS 19.50 -46.67 65 hurdat_atl 1721 1720 O____________O hurdat_atl AL021891 20.50 -47.10 HU 65 1 17.50 -45.80 TS 45 10 299
1891 NA NA 09:00:00 TS 19.73 -47.15 1725 1720 P____________P AL021891 20.70 -47.54 HU 65 1 17.79 -46.35 TS 45 10 297
1891 NA NA 12:00:00 TS 19.97 -47.63 65 hurdat_atl 1732 1723 O____________O hurdat_atl AL021891 20.90 -48.00 HU 65 1 18.10 -46.90 TS 45 10 299
1891 NA NA 15:00:00 TS 20.23 -48.12 1731 1721 P____________P AL021891 21.15 -48.45 HU 65 1 18.40 -47.45 TS 45 11 300
1891 NA NA 18:00:00 TS 20.50 -48.60 65 hurdat_atl 1721 1694 O____________O hurdat_atl AL021891 21.40 -48.90 HU 65 1 18.70 -48.00 TS 45 10 299
1891 NA NA 21:00:00 TS 20.73 -49.08 1694 1677 P____________P AL021891 21.59 -49.34 HU 65 1 19.00 -48.55 TS 45 10 297
1891 NA NA 1891-08-24 00:00:00 TS 20.97 -49.57 65 hurdat_atl 1676 1660 O____________O hurdat_atl AL021891 21.80 -49.80 HU 65 1 19.30 -49.10 TS 45 11 299
1891 NA NA 03:00:00 TS 21.25 -50.08 1652 1604 P____________P AL021891 22.08 -50.29 HU 65 1 19.59 -49.65 TS 45 11 302
1891 NA NA 06:00:00 TS 21.57 -50.60 65 hurdat_atl 1606 1560 O____________O hurdat_atl AL021891 22.40 -50.80 HU 65 1 19.90 -50.20 TS 45 11 303
1891 NA NA 09:00:00 TS 21.87 -51.11 1562 1519 P____________P AL021891 22.69 -51.29 HU 65 1 20.23 -50.75 TS 45 12 303
1891 NA NA 12:00:00 TS 22.20 -51.63 65 hurdat_atl 1519 1478 O____________O hurdat_atl AL021891 23.00 -51.80 HU 65 1 20.60 -51.30 TS 45 12 305
1891 NA NA 15:00:00 TS 22.55 -52.18 1471 1432 P____________P AL021891 23.33 -52.34 HU 65 1 20.99 -51.85 TS 45 13 306
1891 NA NA 18:00:00 TS 22.93 -52.73 65 hurdat_atl 1432 1389 O____________O hurdat_atl AL021891 23.70 -52.90 HU 65 1 21.40 -52.40 TS 45 13 307
1891 NA NA 21:00:00 TS 23.33 -53.29 1389 1359 P____________P AL021891 24.09 -53.44 HU 65 1 21.80 -52.99 TS 45 13 308
1891 NA NA 1891-08-25 00:00:00 TS 23.73 -53.83 65 hurdat_atl 1359 1332 O____________O hurdat_atl AL021891 24.50 -54.00 HU 65 1 22.20 -53.50 TS 45 12 311
1891 NA NA 03:00:00 TS 24.14 -54.30 1332 1308 P____________P AL021891 24.91 -54.60 HU 65 1 22.60 -53.71 TS 45 12 312
1891 NA NA 06:00:00 TS 24.53 -54.80 65 hurdat_atl 1308 1279 O____________O hurdat_atl AL021891 25.30 -55.20 HU 65 1 23.00 -54.00 TS 45 13 306
1891 NA NA 09:00:00 TS 24.91 -55.45 1279 1239 P____________P AL021891 25.66 -55.77 HU 65 1 23.40 -54.80 TS 45 14 302
1891 NA NA 12:00:00 TS 25.27 -56.10 65 hurdat_atl 1246 1227 O____________O hurdat_atl AL021891 26.00 -56.30 HU 65 1 23.80 -55.70 TS 45 13 304
1891 NA NA 15:00:00 TS 25.63 -56.64 1227 1211 P____________P AL021891 26.35 -56.81 HU 65 1 24.20 -56.30 TS 45 12 308
1891 NA NA 18:00:00 TS 26.00 -57.13 65 hurdat_atl 1218 1205 O____________O hurdat_atl AL021891 26.70 -57.30 HU 65 1 24.60 -56.80 TS 45 12 309
1891 NA NA 21:00:00 TS 26.37 -57.66 1207 1200 P____________P AL021891 27.05 -57.81 HU 65 1 25.00 -57.35 TS 47 12 308
1891 NA NA 1891-08-26 00:00:00 TS 26.73 -58.17 65 hurdat_atl 1198 1198 O____________O hurdat_atl AL021891 27.40 -58.30 HU 65 1 25.40 -57.90 TS 50 12 309
1891 NA NA 03:00:00 TS 27.10 -58.66 1201 1201 P____________P AL021891 27.75 -58.77 HU 65 1 25.80 -58.45 TS 52 11 310
1891 NA NA 06:00:00 TS 27.47 -59.13 65 hurdat_atl 1214 1207 O____________O hurdat_atl AL021891 28.10 -59.20 HU 65 1 26.20 -59.00 TS 55 11 312
1891 NA NA 09:00:00 TS 27.83 -59.59 1216 1216 P____________P AL021891 28.45 -59.61 HU 65 1 26.60 -59.55 TS 57 11 313
1891 NA NA 12:00:00 TS 28.20 -60.03 65 hurdat_atl 1235 1230 O____________O hurdat_atl AL021891 28.80 -60.00 HU 65 1 27.00 -60.10 TS 60 11 312
1891 NA NA 15:00:00 TS 28.56 -60.49 1252 1248 P____________P AL021891 29.15 -60.41 HU 65 1 27.37 -60.67 TS 62 11 313
1891 NA NA 18:00:00 TS 28.93 -60.93 65 hurdat_atl 1266 1266 O____________O hurdat_atl AL021891 29.50 -60.80 HU 65 1 27.80 -61.20 HU 65 11 317
1891 NA NA 21:00:00 TS 29.36 -61.34 1304 1300 P____________P AL021891 29.85 -61.17 HU 65 1 28.37 -61.68 HU 65 11 322
1891 NA NA 1891-08-27 00:00:00 TS 29.80 -61.70 65 hurdat_atl 1333 1333 O____________O hurdat_atl AL021891 30.20 -61.50 HU 65 1 29.00 -62.10 HU 65 11 326
1891 NA NA 03:00:00 TS 30.23 -62.03 1367 1354 P____________P AL021891 30.55 -61.81 HU 65 1 29.60 -62.47 HU 67 10 328
1891 NA NA 06:00:00 TS 30.67 -62.33 65 hurdat_atl 1349 1302 O____________O hurdat_atl AL021891 30.90 -62.10 HU 65 1 30.20 -62.80 HU 70 10 328
1891 NA NA 09:00:00 TS 31.09 -62.64 1302 1257 P____________P AL021891 31.24 -62.40 HU 65 1 30.79 -63.13 HU 70 10 329
1891 NA NA 12:00:00 TS 31.53 -62.93 65 hurdat_atl 1257 1208 O____________O hurdat_atl AL021891 31.60 -62.70 HU 65 1 31.40 -63.40 HU 70 10 333
1891 NA NA 15:00:00 TS 32.01 -63.20 1208 1169 P____________P AL021891 31.97 -63.02 HU 65 1 32.09 -63.57 HU 72 11 337
1891 NA NA 18:00:00 TS 32.53 -63.43 65 hurdat_atl 1169 1110 O____________O hurdat_atl AL021891 32.40 -63.30 HU 65 1 32.80 -63.70 HU 75 12 342
1891 NA NA 21:00:00 TS 33.10 -63.63 1110 1043 P____________P AL021891 32.92 -63.52 HU 65 1 33.47 -63.86 HU 75 12 345
1891 NA NA 1891-08-28 00:00:00 TS 33.70 -63.80 65 hurdat_atl 1043 985 O____________O hurdat_atl AL021891 33.50 -63.70 HU 65 1 34.10 -64.00 HU 75 12 346
1891 NA NA 03:00:00 TS 34.28 -63.98 976 923 P____________P AL021891 34.09 -63.91 HU 65 1 34.66 -64.12 HU 77 12 347
1891 NA NA 06:00:00 TS 34.87 -64.13 65 hurdat_atl 914 848 O____________O hurdat_atl AL021891 34.70 -64.10 HU 65 1 35.20 -64.20 HU 80 12 349
1891 NA NA 09:00:00 TS 35.49 -64.27 848 788 P____________P AL021891 35.34 -64.27 HU 65 1 35.79 -64.27 HU 80 13 351
1891 NA NA 12:00:00 TS 36.13 -64.37 65 hurdat_atl 788 729 O____________O hurdat_atl AL021891 36.00 -64.40 HU 65 1 36.40 -64.30 HU 80 13 353
1891 NA NA 15:00:00 TS 36.76 -64.46 721 670 P____________P AL021891 36.63 -64.53 HU 65 1 37.00 -64.33 HU 80 13 355
1891 NA NA 18:00:00 TS 37.40 -64.50 65 hurdat_atl 670 604 O____________O hurdat_atl AL021891 37.30 -64.60 HU 65 1 37.60 -64.30 HU 80 13 1
1891 NA NA 21:00:00 TS 38.09 -64.45 605 529 P____________P AL021891 38.04 -64.57 HU 65 1 38.20 -64.19 HU 82 14 5
1891 NA NA 1891-08-29 00:00:00 TS 38.80 -64.33 65 hurdat_atl 529 463 O____________O hurdat_atl AL021891 38.80 -64.50 HU 65 1 38.80 -64.00 HU 85 14 6
1891 NA NA 03:00:00 TS 39.47 -64.26 452 380 P____________P AL021891 39.54 -64.46 HU 60 0 39.33 -63.85 HU 85 14 8
1891 NA NA 06:00:00 MX 40.20 -64.07 55 hurdat_atl 380 307 O____________O hurdat_atl AL021891 40.30 -64.40 EX 55 -4 40.00 -63.40 HU 85 17 17
1891 NA NA 09:00:00 MX 41.08 -63.62 301 256 P____________P AL021891 41.11 -64.25 EX 45 -4 41.02 -62.37 HU 87 20 27
1891 NA NA 12:00:00 MX 41.98 -62.86 35 hurdat_atl 252 228 O____________O hurdat_atl AL021891 41.90 -64.10 EX 35 -4 42.10 -61.00 HU 90 22 38
1891 NA NA 15:00:00 MX 42.79 -61.80 225 196 P____________P AL021891 42.62 -64.02 EX 30 -4 42.96 -59.57 HU 90 25 52
1891 NA NA 18:00:00 MX 43.57 -60.13 25 hurdat_atl 194 194 O____________O hurdat_atl AL021891 43.30 -64.00 EX 25 -4 43.70 -58.20 HU 90 965 37 66
1891 NA NA 21:00:00 TS 44.33 -57.13 287 203 _____________P AL021891 EX -4 44.33 -57.13 HU 80 32 63
1891 NA NA 1891-08-30 00:00:00 ET 45.00 -56.20 203 125 _____________O 45.00 -56.20 EX 70 20 43
1891 NA NA 03:00:00 ET 45.78 -55.22 117 13 _____________P 45.78 -55.22 EX 70 22 36
1891 NA NA 06:00:00 ET 46.80 -54.30 7 0 _____________O 46.80 -54.30 EX 70 27 27
1891 NA NA 09:00:00 ET 48.15 -53.44 11 0 _____________P 48.15 -53.44 EX 65 31 21
1891 NA NA 12:00:00 ET 49.70 -52.60 78 _____________O 49.70 -52.60 EX 60 33 19